createdAt,value
2019-02-08T00:01:05.141Z,79.47
2019-02-08T00:03:15.930Z,79.11
2019-02-08T00:05:26.769Z,79.14
2019-02-08T00:07:37.574Z,78.62
2019-02-08T00:09:48.493Z,78.62
2019-02-08T00:11:59.326Z,78.38
2019-02-08T00:14:10.142Z,78.46
2019-02-08T00:16:21.054Z,78.31
2019-02-08T00:18:31.964Z,78.17
2019-02-08T00:20:43.282Z,78.00
2019-02-08T00:22:54.192Z,78.05
2019-02-08T00:25:11.520Z,78.30
2019-02-08T00:27:22.308Z,78.23
2019-02-08T00:29:33.257Z,78.11
2019-02-08T00:31:44.159Z,77.97
2019-02-08T00:33:54.954Z,78.18
2019-02-08T00:36:05.770Z,78.27
2019-02-08T00:38:16.575Z,78.23
2019-02-08T00:40:27.542Z,78.24
2019-02-08T00:42:39.735Z,77.96
2019-02-08T00:44:50.522Z,78.15
2019-02-08T00:47:01.398Z,78.11
2019-02-08T00:49:12.222Z,78.03
2019-02-08T00:51:23.038Z,77.76
2019-02-08T00:53:33.961Z,77.81
2019-02-08T00:55:44.883Z,77.79
2019-02-08T00:57:55.786Z,77.92
2019-02-08T01:00:26.553Z,77.78
2019-02-08T01:03:19.010Z,77.86
2019-02-08T01:05:29.809Z,77.59
2019-02-08T01:07:40.733Z,77.53
2019-02-08T01:09:51.584Z,77.41
2019-02-08T01:12:44.043Z,77.31
2019-02-08T01:14:54.850Z,77.48
2019-02-08T01:17:05.661Z,77.25
2019-02-08T01:19:16.465Z,77.26
2019-02-08T01:21:27.287Z,77.19
2019-02-08T01:23:41.358Z,77.07
2019-02-08T01:25:50.782Z,77.12
2019-02-08T01:28:01.594Z,76.91
2019-02-08T01:30:54.041Z,76.91
2019-02-08T01:33:04.970Z,76.93
2019-02-08T01:35:57.450Z,76.38
2019-02-08T01:38:08.266Z,76.20
2019-02-08T01:40:38.931Z,76.42
2019-02-08T01:42:49.818Z,76.38
2019-02-08T01:45:00.651Z,76.41
2019-02-08T01:47:11.443Z,76.21
2019-02-08T01:49:35.730Z,76.27
2019-02-08T01:51:46.506Z,76.18
2019-02-08T01:53:57.427Z,76.25
2019-02-08T01:56:08.231Z,76.42
2019-02-08T01:58:19.045Z,76.42
2019-02-08T02:01:11.500Z,76.59
2019-02-08T02:03:22.418Z,76.69
2019-02-08T02:05:33.233Z,76.87
2019-02-08T02:07:44.221Z,76.97
2019-02-08T02:09:55.091Z,77.05
2019-02-08T02:12:05.855Z,77.04
2019-02-08T02:14:16.810Z,76.89
2019-02-08T02:16:27.580Z,76.69
2019-02-08T02:18:38.392Z,76.64
2019-02-08T02:20:49.284Z,76.83
2019-02-08T02:23:00.094Z,76.83
2019-02-08T02:25:52.560Z,76.64
2019-02-08T02:28:45.022Z,76.69
2019-02-08T02:30:55.848Z,77.04
2019-02-08T02:33:48.307Z,77.06
2019-02-08T02:35:59.228Z,76.89
2019-02-08T02:38:10.251Z,77.22
2019-02-08T02:40:21.272Z,77.27
2019-02-08T02:42:32.060Z,77.13
2019-02-08T02:44:42.886Z,77.35
2019-02-08T02:46:53.830Z,77.51
2019-02-08T02:49:04.642Z,77.51
2019-02-08T02:51:15.453Z,77.76
2019-02-08T02:53:26.247Z,77.96
2019-02-08T02:55:37.179Z,78.02
2019-02-08T02:57:48.178Z,78.23
2019-02-08T02:59:58.980Z,78.17
2019-02-08T03:02:09.799Z,78.14
2019-02-08T03:04:20.691Z,78.16
2019-02-08T03:06:31.508Z,78.12
2019-02-08T03:08:42.296Z,78.23
2019-02-08T03:10:53.127Z,78.28
2019-02-08T03:16:03.237Z,78.31
2019-02-08T03:18:14.035Z,78.26
2019-02-08T03:20:24.848Z,78.11
2019-02-08T03:22:35.785Z,77.92
2019-02-08T03:24:46.590Z,77.85
2019-02-08T03:26:57.400Z,77.78
2019-02-08T03:29:08.192Z,77.70
2019-02-08T03:31:19.124Z,77.69
2019-02-08T03:33:29.915Z,77.58
2019-02-08T03:35:40.826Z,77.38
2019-02-08T03:37:51.818Z,77.33
2019-02-08T03:40:44.259Z,77.40
2019-02-08T03:42:55.181Z,77.26
2019-02-08T03:45:47.635Z,77.36
2019-02-08T03:47:58.465Z,77.25
2019-02-08T03:50:50.915Z,76.92
2019-02-08T03:53:01.740Z,77.04
2019-02-08T03:55:32.423Z,76.49
2019-02-08T03:57:43.329Z,76.49
2019-02-08T03:59:54.139Z,76.82
2019-02-08T04:02:05.040Z,76.73
2019-02-08T04:04:15.984Z,76.51
2019-02-08T04:06:26.878Z,76.34
2019-02-08T04:08:37.794Z,76.34
2019-02-08T04:10:48.683Z,76.01
2019-02-08T04:12:59.496Z,75.97
2019-02-08T04:15:51.950Z,75.76
2019-02-08T04:18:44.418Z,75.88
2019-02-08T04:20:55.212Z,75.88
2019-02-08T04:23:06.058Z,75.84
2019-02-08T04:25:16.936Z,76.03
2019-02-08T04:27:27.743Z,75.94
2019-02-08T04:29:38.567Z,75.74
2019-02-08T04:31:49.356Z,75.67
2019-02-08T04:34:00.178Z,75.40
2019-02-08T04:36:10.978Z,75.19
2019-02-08T04:38:21.769Z,75.25
2019-02-08T04:40:32.583Z,75.36
2019-02-08T04:42:43.381Z,75.23
2019-02-08T04:44:54.202Z,74.83
2019-02-08T04:47:05.001Z,75.00
2019-02-08T04:49:15.838Z,75.00
2019-02-08T04:51:26.647Z,75.11
2019-02-08T04:53:37.445Z,75.07
2019-02-08T04:55:48.377Z,75.08
2019-02-08T04:57:59.158Z,75.10
2019-02-08T05:00:51.636Z,75.16
2019-02-08T05:03:44.059Z,74.75
2019-02-08T05:05:54.886Z,74.76
2019-02-08T05:08:05.780Z,75.10
2019-02-08T05:10:58.238Z,74.87
2019-02-08T05:13:09.040Z,75.00
2019-02-08T05:16:01.537Z,75.13
2019-02-08T05:18:12.332Z,75.22
2019-02-08T05:21:04.801Z,75.36
2019-02-08T05:23:15.692Z,75.25
2019-02-08T05:25:26.491Z,74.84
2019-02-08T05:27:37.322Z,74.65
2019-02-08T05:29:48.103Z,74.68
2019-02-08T05:31:59.048Z,74.95
2019-02-08T05:34:09.928Z,74.83
2019-02-08T05:36:20.799Z,74.60
2019-02-08T05:38:31.605Z,74.74
2019-02-08T05:40:42.532Z,75.06
2019-02-08T05:42:53.390Z,75.04
2019-02-08T05:45:45.864Z,73.33
2019-02-08T05:47:56.681Z,73.35
2019-02-08T05:50:49.160Z,73.30
2019-02-08T05:52:59.985Z,73.34
2019-02-08T05:55:52.451Z,73.36
2019-02-08T05:58:44.967Z,73.47
2019-02-08T06:03:28.199Z,73.94
2019-02-08T06:06:20.736Z,74.12
2019-02-08T06:08:31.503Z,74.02
2019-02-08T06:10:42.403Z,74.31
2019-02-08T06:12:53.433Z,74.23
2019-02-08T06:15:45.869Z,74.21
2019-02-08T06:17:56.779Z,74.27
2019-02-08T06:20:49.241Z,74.02
2019-02-08T06:23:00.101Z,74.24
2019-02-08T06:25:52.532Z,74.58
2019-02-08T06:28:44.992Z,74.60
2019-02-08T06:30:55.781Z,74.68
2019-02-08T06:33:06.800Z,74.70
2019-02-08T06:35:59.247Z,74.84
2019-02-08T06:38:10.166Z,74.75
2019-02-08T06:40:41.738Z,74.90
2019-02-08T06:42:52.853Z,75.04
2019-02-08T06:45:45.306Z,75.23
2019-02-08T06:47:56.134Z,75.29
2019-02-08T06:50:48.589Z,75.24
2019-02-08T06:52:59.409Z,75.20
2019-02-08T06:55:11.174Z,75.16
2019-02-08T07:02:34.156Z,75.24
2019-02-08T07:05:04.951Z,75.13
2019-02-08T07:07:35.620Z,75.01
2019-02-08T07:14:47.091Z,74.60
2019-02-08T07:19:50.185Z,74.26
2019-02-08T07:24:43.253Z,74.02
2019-02-08T07:27:13.946Z,73.88
2019-02-08T07:32:07.102Z,73.40
2019-02-08T07:34:59.575Z,73.51
2019-02-08T07:37:30.460Z,73.46
2019-02-08T07:40:22.934Z,73.55
2019-02-08T07:42:53.813Z,73.21
2019-02-08T07:45:46.291Z,73.07
2019-02-08T07:48:17.092Z,73.25
2019-02-08T07:50:47.815Z,73.07
2019-02-08T07:55:58.741Z,72.93
2019-02-08T07:58:29.530Z,72.94
2019-02-08T08:01:00.211Z,72.94
2019-02-08T08:03:31.128Z,72.88
2019-02-08T08:06:23.602Z,72.53
2019-02-08T08:15:51.371Z,66.18
2019-02-08T08:18:43.842Z,64.23
2019-02-08T08:21:36.286Z,62.02
2019-02-08T08:24:28.753Z,60.87
2019-02-08T08:27:21.218Z,59.89
2019-02-08T08:30:13.679Z,59.16
2019-02-08T08:33:06.148Z,58.65
2019-02-08T08:35:58.606Z,57.63
2019-02-08T08:38:54.075Z,56.56
2019-02-08T08:41:46.518Z,56.21
2019-02-08T08:44:37.085Z,55.57
2019-02-08T08:47:29.545Z,55.20
2019-02-08T08:50:22.053Z,55.90
2019-02-08T08:53:12.617Z,55.84
2019-02-08T08:56:03.174Z,55.92
2019-02-08T08:58:56.274Z,55.26
2019-02-08T09:01:51.717Z,55.84
2019-02-08T09:04:42.275Z,55.07
2019-02-08T09:07:32.803Z,54.93
2019-02-08T09:10:23.654Z,54.46
2019-02-08T09:13:15.059Z,54.19
2019-02-08T09:16:05.778Z,54.52
2019-02-08T09:18:56.326Z,54.01
2019-02-08T09:21:48.801Z,54.04
2019-02-08T09:24:41.275Z,54.15
2019-02-08T09:27:33.715Z,53.20
2019-02-08T09:30:24.283Z,54.24
2019-02-08T09:33:16.720Z,54.25
2019-02-08T09:35:49.314Z,54.01
2019-02-08T09:38:39.850Z,53.92
2019-02-08T09:41:35.335Z,52.76
2019-02-08T09:44:25.869Z,52.57
2019-02-08T09:47:16.420Z,53.03
2019-02-08T09:50:06.991Z,53.32
2019-02-08T09:52:57.561Z,52.99
2019-02-08T09:55:48.130Z,53.58
2019-02-08T09:58:40.566Z,53.73
2019-02-08T10:01:31.202Z,53.31
2019-02-08T10:04:21.729Z,53.58
2019-02-08T10:07:14.183Z,53.54
2019-02-08T10:10:04.718Z,54.32
2019-02-08T10:12:55.294Z,53.88
2019-02-08T10:15:45.846Z,53.65
2019-02-08T10:18:36.394Z,53.67
2019-02-08T10:21:26.941Z,53.66
2019-02-08T10:24:17.493Z,53.76
2019-02-08T10:27:09.935Z,54.52
2019-02-08T10:30:00.506Z,53.71
2019-02-08T10:32:52.545Z,54.31
2019-02-08T10:35:46.178Z,53.74
2019-02-08T10:38:40.266Z,53.99
2019-02-08T10:41:30.958Z,53.73
2019-02-08T10:47:08.067Z,53.80
2019-02-08T10:49:58.659Z,53.66
2019-02-08T10:52:49.212Z,54.14
2019-02-08T10:55:41.680Z,54.34
2019-02-08T10:58:34.160Z,53.77
2019-02-08T11:01:24.720Z,54.12
2019-02-08T11:04:15.288Z,55.00
2019-02-08T11:07:05.839Z,54.80
2019-02-08T11:09:56.427Z,53.82
2019-02-08T11:12:46.936Z,55.12
2019-02-08T11:15:38.107Z,54.96
2019-02-08T11:18:30.545Z,53.45
2019-02-08T11:20:41.362Z,53.46
2019-02-08T11:22:52.169Z,52.69
2019-02-08T11:25:44.623Z,53.21
2019-02-08T11:27:55.449Z,53.24
2019-02-08T11:30:47.928Z,52.89
2019-02-08T11:32:58.743Z,53.02
2019-02-08T11:35:09.798Z,52.20
2019-02-08T11:37:20.705Z,52.94
2019-02-08T11:39:31.535Z,53.03
2019-02-08T11:41:42.557Z,53.93
2019-02-08T11:43:53.371Z,53.04
2019-02-08T11:46:04.281Z,52.57
2019-02-08T11:48:15.219Z,52.17
2019-02-08T11:50:26.070Z,53.15
2019-02-08T11:52:37.021Z,52.15
2019-02-08T11:54:47.819Z,52.35
2019-02-08T11:56:58.812Z,52.88
2019-02-08T11:59:09.601Z,54.06
2019-02-08T12:01:20.414Z,54.81
2019-02-08T12:03:31.215Z,54.07
2019-02-08T12:05:42.113Z,53.72
2019-02-08T12:07:53.032Z,54.45
2019-02-08T12:10:45.477Z,54.59
2019-02-08T12:12:56.306Z,54.84
2019-02-08T12:15:48.765Z,54.24
2019-02-08T12:17:59.596Z,57.92
2019-02-08T12:20:10.529Z,53.92
2019-02-08T12:22:21.341Z,53.86
2019-02-08T12:24:32.139Z,52.56
2019-02-08T12:26:42.954Z,53.81
2019-02-08T12:28:53.998Z,52.88
2019-02-08T12:31:04.888Z,53.92
2019-02-08T12:33:15.715Z,52.70
2019-02-08T12:35:26.519Z,52.90
2019-02-08T12:37:37.357Z,52.43
2019-02-08T12:39:48.203Z,52.59
2019-02-08T12:41:59.027Z,52.60
2019-02-08T12:44:09.963Z,52.50
2019-02-08T12:46:20.764Z,53.07
2019-02-08T12:48:31.590Z,53.13
2019-02-08T12:50:42.514Z,53.12
2019-02-08T12:52:53.325Z,53.38
2019-02-08T12:55:45.853Z,52.94
2019-02-08T12:58:16.649Z,53.12
2019-02-08T13:00:27.562Z,53.86
2019-02-08T13:02:38.371Z,53.92
2019-02-08T13:04:49.212Z,54.55
2019-02-08T13:07:00.032Z,54.34
2019-02-08T13:09:52.519Z,53.50
2019-02-08T13:12:03.353Z,53.70
2019-02-08T13:14:14.185Z,53.31
2019-02-08T13:16:44.885Z,54.39
2019-02-08T13:18:55.679Z,54.39
2019-02-08T13:21:06.515Z,54.09
2019-02-08T13:23:17.334Z,53.89
2019-02-08T13:25:28.263Z,53.22
2019-02-08T13:27:39.243Z,53.33
2019-02-08T13:29:50.052Z,54.44
2019-02-08T13:32:00.891Z,54.46
2019-02-08T13:34:11.793Z,54.10
2019-02-08T13:36:22.605Z,53.30
2019-02-08T13:38:33.411Z,53.56
2019-02-08T13:40:44.458Z,53.50
2019-02-08T13:42:55.284Z,53.35
2019-02-08T13:45:47.753Z,53.18
2019-02-08T13:47:58.571Z,53.38
2019-02-08T13:52:55.593Z,53.19
2019-02-08T13:55:48.748Z,53.46
2019-02-08T13:57:59.609Z,53.71
2019-02-08T14:02:49.302Z,52.92
2019-02-08T14:05:00.196Z,53.53
2019-02-08T14:07:11.041Z,53.48
2019-02-08T14:09:21.836Z,53.00
2019-02-08T14:11:32.716Z,53.04
2019-02-08T14:13:43.494Z,52.95
2019-02-08T14:15:54.310Z,52.74
2019-02-08T14:18:05.311Z,53.07
2019-02-08T14:20:57.780Z,53.58
2019-02-08T14:23:08.576Z,52.66
2019-02-08T14:26:01.061Z,53.20
2019-02-08T14:28:11.908Z,53.11
2019-02-08T14:30:42.678Z,53.78
2019-02-08T14:32:53.525Z,53.89
2019-02-08T14:35:45.962Z,53.17
2019-02-08T14:38:38.422Z,53.13
2019-02-08T14:40:49.234Z,53.54
2019-02-08T14:43:00.348Z,53.27
2019-02-08T14:45:52.792Z,53.68
2019-02-08T14:48:03.734Z,53.93
2019-02-08T14:50:34.457Z,53.48
2019-02-08T14:53:27.775Z,53.26
2019-02-08T14:55:39.627Z,53.39
2019-02-08T14:58:32.099Z,53.54
2019-02-08T15:00:42.929Z,53.54
2019-02-08T15:02:53.775Z,53.45
2019-02-08T15:05:46.274Z,54.00
2019-02-08T15:07:57.760Z,53.27
2019-02-08T15:10:51.476Z,53.66
2019-02-08T15:13:02.537Z,53.89
2019-02-08T15:15:13.456Z,53.67
2019-02-08T15:17:24.266Z,53.79
2019-02-08T15:19:35.192Z,53.84
2019-02-08T15:21:46.042Z,54.05
2019-02-08T15:23:56.882Z,54.04
2019-02-08T15:26:07.788Z,54.16
2019-02-08T15:28:18.596Z,53.68
2019-02-08T15:31:11.096Z,53.97
2019-02-08T15:33:21.906Z,54.08
2019-02-08T15:35:33.035Z,53.95
2019-02-08T15:38:25.488Z,54.25
2019-02-08T15:40:56.331Z,54.11
2019-02-08T15:43:48.804Z,54.42
2019-02-08T15:45:59.810Z,54.34
2019-02-08T15:48:10.714Z,54.04
2019-02-08T15:50:21.776Z,54.10
2019-02-08T15:52:32.589Z,54.07
2019-02-08T15:54:43.506Z,53.86
2019-02-08T15:56:54.458Z,53.66
2019-02-08T15:59:05.285Z,53.78
2019-02-08T16:01:16.215Z,54.26
2019-02-08T16:03:27.005Z,54.48
2019-02-08T16:05:37.917Z,54.75
2019-02-08T16:07:48.767Z,54.91
2019-02-08T16:09:59.635Z,55.11
2019-02-08T16:12:10.459Z,55.88
2019-02-08T16:14:21.350Z,56.19
2019-02-08T16:16:32.269Z,57.05
2019-02-08T16:18:43.099Z,57.31
2019-02-08T16:20:53.951Z,57.31
2019-02-08T16:23:04.859Z,57.34
2019-02-08T16:25:57.349Z,57.58
2019-02-08T16:28:08.274Z,58.00
2019-02-08T16:31:00.770Z,58.10
2019-02-08T16:33:11.695Z,57.77
2019-02-08T16:36:04.167Z,58.40
2019-02-08T16:38:15.070Z,58.82
2019-02-08T16:41:07.554Z,59.14
2019-02-08T16:43:18.399Z,59.33
2019-02-08T16:45:49.086Z,59.69
2019-02-08T16:48:41.563Z,59.80
2019-02-08T16:50:52.516Z,59.94
2019-02-08T16:53:44.986Z,60.65
2019-02-08T16:55:55.787Z,61.37
2019-02-08T16:58:48.279Z,61.65
2019-02-08T17:00:59.208Z,61.78
2019-02-08T17:03:51.679Z,61.91
2019-02-08T17:06:24.266Z,62.57
2019-02-08T17:08:35.101Z,62.77
2019-02-08T17:10:45.915Z,63.40
2019-02-08T17:13:38.401Z,63.77
2019-02-08T17:15:49.213Z,63.68
2019-02-08T17:18:00.065Z,63.91
2019-02-08T17:20:31.935Z,63.93
2019-02-08T17:22:42.796Z,63.96
2019-02-08T17:24:53.596Z,64.22
2019-02-08T17:27:04.496Z,64.17
2019-02-08T17:29:15.355Z,64.11
2019-02-08T17:31:26.178Z,63.78
2019-02-08T17:33:37.000Z,63.65
2019-02-08T17:35:47.831Z,63.22
2019-02-08T17:37:58.713Z,62.99
2019-02-08T17:40:51.181Z,62.90
2019-02-08T17:43:43.677Z,62.66
2019-02-08T17:45:54.500Z,62.54
2019-02-08T17:48:46.973Z,62.68
2019-02-08T17:50:57.819Z,62.50
2019-02-08T17:53:08.645Z,62.37
2019-02-08T17:56:01.138Z,62.43
2019-02-08T17:58:11.949Z,62.41
2019-02-08T18:01:04.441Z,62.35
2019-02-08T18:03:15.367Z,62.36
2019-02-08T18:05:26.303Z,62.32
2019-02-08T18:07:37.433Z,62.41
2019-02-08T18:09:49.848Z,62.32
2019-02-08T18:12:00.687Z,62.40
2019-02-08T18:14:11.563Z,62.60
2019-02-08T18:16:22.398Z,62.38
2019-02-08T18:18:33.229Z,62.26
2019-02-08T18:21:03.932Z,62.02
2019-02-08T18:23:14.763Z,62.07
2019-02-08T18:25:25.685Z,61.94
2019-02-08T18:27:36.525Z,62.00
2019-02-08T18:29:47.459Z,61.75
2019-02-08T18:31:58.328Z,61.61
2019-02-08T18:34:09.136Z,61.64
2019-02-08T18:36:20.003Z,61.69
2019-02-08T18:38:30.794Z,61.97
2019-02-08T18:40:41.622Z,61.67
2019-02-08T18:42:52.632Z,61.70
2019-02-08T18:45:45.121Z,61.93
2019-02-08T18:47:56.057Z,61.88
2019-02-08T18:50:48.513Z,62.09
2019-02-08T18:52:59.361Z,62.21
2019-02-08T18:55:10.270Z,62.32
2019-02-08T18:57:21.151Z,62.55
2019-02-08T18:59:31.975Z,62.37
2019-02-08T19:01:42.922Z,62.13
2019-02-08T19:03:53.746Z,61.82
2019-02-08T19:06:04.552Z,61.69
2019-02-08T19:08:15.500Z,61.67
2019-02-08T19:10:26.331Z,61.70
2019-02-08T19:12:37.246Z,61.70
2019-02-08T19:14:48.055Z,61.69
2019-02-08T19:16:58.896Z,61.83
2019-02-08T19:19:09.758Z,61.72
2019-02-08T19:21:20.600Z,61.52
2019-02-08T19:23:31.487Z,61.57
2019-02-08T19:26:23.955Z,61.50
2019-02-08T19:28:34.778Z,61.44
2019-02-08T19:30:45.583Z,61.54
2019-02-08T19:32:56.440Z,61.67
2019-02-08T19:35:48.893Z,61.28
2019-02-08T19:37:59.724Z,61.28
2019-02-08T19:40:52.214Z,61.12
2019-02-08T19:43:44.688Z,60.94
2019-02-08T19:45:55.514Z,61.27
2019-02-08T19:48:47.998Z,60.99
2019-02-08T19:50:59.035Z,60.99
2019-02-08T19:53:10.036Z,60.53
2019-02-08T19:55:21.092Z,60.35
2019-02-08T19:57:31.913Z,60.32
2019-02-08T19:59:42.754Z,60.37
2019-02-08T20:01:53.590Z,60.44
2019-02-08T20:04:04.449Z,60.46
2019-02-08T20:06:15.382Z,60.52
2019-02-08T20:08:26.243Z,60.35
2019-02-08T20:11:18.719Z,60.06
2019-02-08T20:13:29.544Z,59.80
2019-02-08T20:15:40.358Z,59.93
2019-02-08T20:17:51.270Z,59.82
2019-02-08T20:20:43.762Z,59.69
2019-02-08T20:22:54.668Z,59.55
2019-02-08T20:25:47.149Z,59.69
2019-02-08T20:27:58.059Z,59.55
2019-02-08T20:30:50.821Z,59.41
2019-02-08T20:33:01.729Z,59.33
2019-02-08T20:35:54.196Z,59.31
2019-02-08T20:38:05.356Z,59.24
2019-02-08T20:40:57.813Z,59.18
2019-02-08T20:43:08.658Z,59.00
2019-02-08T20:46:01.144Z,59.09
2019-02-08T20:48:53.583Z,59.06
2019-02-08T20:51:04.547Z,59.13
2019-02-08T20:53:15.589Z,59.00
2019-02-08T20:56:08.100Z,58.86
2019-02-08T20:58:19.004Z,58.79
2019-02-08T21:01:11.481Z,58.53
2019-02-08T21:04:03.928Z,58.63
2019-02-08T21:06:14.785Z,58.50
2019-02-08T21:08:25.713Z,58.50
2019-02-08T21:10:36.625Z,58.49
2019-02-08T21:12:47.597Z,57.97
2019-02-08T21:14:58.411Z,57.52
2019-02-08T21:17:09.271Z,58.09
2019-02-08T21:19:20.100Z,58.36
2019-02-08T21:21:30.925Z,58.61
2019-02-08T21:23:41.748Z,58.61
2019-02-08T21:25:52.714Z,57.64
2019-02-08T21:28:46.146Z,57.00
2019-02-08T21:30:57.048Z,56.95
2019-02-08T21:33:49.541Z,56.40
2019-02-08T21:36:00.368Z,56.06
2019-02-08T21:38:11.331Z,56.63
2019-02-08T21:40:42.008Z,56.21
2019-02-08T21:43:34.590Z,56.23
2019-02-08T21:45:45.443Z,56.56
2019-02-08T21:47:56.386Z,56.89
2019-02-08T21:50:48.861Z,57.05
2019-02-08T21:52:59.921Z,57.22
2019-02-08T21:55:52.371Z,57.27
2019-02-08T21:58:44.874Z,57.40
2019-02-08T22:00:55.781Z,58.17
2019-02-08T22:03:48.267Z,58.35
2019-02-08T22:06:40.753Z,58.29
2019-02-08T22:08:51.573Z,58.01
2019-02-08T22:11:22.284Z,58.11
2019-02-08T22:13:33.127Z,58.11
2019-02-08T22:16:25.570Z,58.36
2019-02-08T22:18:36.442Z,58.42
2019-02-08T22:20:47.363Z,58.51
2019-02-08T22:22:58.278Z,58.66
2019-02-08T22:25:50.759Z,58.91
2019-02-08T22:28:01.601Z,59.04
2019-02-08T22:30:32.293Z,59.27
2019-02-08T22:33:24.759Z,59.61
2019-02-08T22:35:35.777Z,60.16
2019-02-08T22:37:46.677Z,60.42
2019-02-08T22:39:57.517Z,60.67
2019-02-08T22:42:08.338Z,60.98
2019-02-08T22:46:36.670Z,61.62
2019-02-08T22:48:47.470Z,61.84
2019-02-08T22:50:58.348Z,62.00
2019-02-08T22:53:09.367Z,62.08
2019-02-08T22:56:01.834Z,62.14
2019-02-08T22:58:12.647Z,62.23
2019-02-08T23:01:03.211Z,62.46
2019-02-08T23:03:55.666Z,62.56
2019-02-08T23:06:06.605Z,62.85
2019-02-08T23:08:17.418Z,63.02
2019-02-08T23:10:28.350Z,63.87
2019-02-08T23:12:39.167Z,64.38
2019-02-08T23:14:49.969Z,64.60
2019-02-08T23:17:00.889Z,64.87
2019-02-08T23:19:11.814Z,65.42
2019-02-08T23:21:22.722Z,65.32
2019-02-08T23:23:33.533Z,65.20
2019-02-08T23:25:44.346Z,65.52
2019-02-08T23:27:55.207Z,65.88
2019-02-08T23:30:25.842Z,66.04
2019-02-08T23:32:36.775Z,66.55
2019-02-08T23:34:47.590Z,66.91
2019-02-08T23:36:58.602Z,67.53
2019-02-08T23:39:51.068Z,67.69
2019-02-08T23:42:01.901Z,68.05
2019-02-08T23:44:12.794Z,68.55
2019-02-08T23:46:23.607Z,68.35
2019-02-08T23:48:34.513Z,68.17
2019-02-08T23:50:45.323Z,67.63
2019-02-08T23:52:56.191Z,67.43
2019-02-08T23:55:48.664Z,67.58
2019-02-08T23:57:59.492Z,67.46
